Time;durP1;ratioP1;P1;durP2;ratioP2;P2;SDS_P1;SDS_P2;PMS_P1;PMS_P2;Temp;Humidity;BMP_temperature;BMP_pressure;BME280_temperature;BME280_humidity;BME280_pressure;Samples;Min_cycle;Max_cycle;Signal;HPM_P1;HPM_P2
2022/06/07 00:02:06;;;;;;;39.73;29.67;;;;;;;12.32;100.00;101212.94;5014123;28;20113;-80
2022/06/07 00:04:32;;;;;;;36.00;28.27;;;;;;;12.34;100.00;101210.84;5015581;28;20113;-80
2022/06/07 00:06:58;;;;;;;35.63;27.07;;;;;;;12.38;100.00;101208.56;5012781;28;20449;-80
2022/06/07 00:09:23;;;;;;;37.23;27.97;;;;;;;12.38;100.00;101208.56;5020940;28;20065;-80
2022/06/07 00:11:49;;;;;;;40.67;30.67;;;;;;;12.35;100.00;101208.97;5009349;28;20457;-80
2022/06/07 00:14:15;;;;;;;41.80;29.90;;;;;;;12.38;100.00;101200.41;5020394;28;20026;-80
2022/06/07 00:16:40;;;;;;;43.07;31.50;;;;;;;12.40;100.00;101201.00;5010868;28;20430;-80
2022/06/07 00:19:05;;;;;;;40.43;31.33;;;;;;;12.40;100.00;101196.41;5017165;28;20428;-79
2022/06/07 00:21:31;;;;;;;41.73;30.63;;;;;;;12.41;100.00;101197.25;5010942;28;20038;-80
2022/06/07 00:23:59;;;;;;;40.67;33.00;;;;;;;12.38;100.00;101194.97;5028927;28;20532;-80
2022/06/07 00:26:26;;;;;;;43.30;32.80;;;;;;;12.44;100.00;101196.81;5029260;28;20025;-81
2022/06/07 00:28:52;;;;;;;45.33;32.60;;;;;;;12.43;100.00;101193.25;5012466;28;20029;-81
2022/06/07 00:31:17;;;;;;;46.47;32.87;;;;;;;12.45;100.00;101193.03;5033192;28;20040;-82
2022/06/07 00:33:43;;;;;;;41.20;31.83;;;;;;;12.48;100.00;101187.16;5021010;28;20095;-81
2022/06/07 00:36:08;;;;;;;43.27;32.10;;;;;;;12.47;100.00;101182.78;5018216;28;21536;-81
2022/06/07 00:38:34;;;;;;;42.30;30.53;;;;;;;12.48;100.00;101179.88;5013721;28;20033;-81
2022/06/07 00:41:00;;;;;;;42.57;31.30;;;;;;;12.47;100.00;101180.91;5018782;28;20033;-81
2022/06/07 00:43:26;;;;;;;44.10;32.33;;;;;;;12.42;100.00;101172.56;5029762;28;20501;-81
2022/06/07 00:45:51;;;;;;;44.83;33.23;;;;;;;12.46;100.00;101167.53;5015478;28;20527;-81
2022/06/07 00:48:17;;;;;;;46.33;32.33;;;;;;;12.48;100.00;101181.72;4997809;28;20060;-81
2022/06/07 00:50:54;;;;;;;42.73;31.80;;;;;;;12.49;100.00;101172.53;5013034;28;20121;-80
2022/06/07 00:53:27;;;;;;;41.13;30.93;;;;;;;12.50;100.00;101177.75;5013567;28;20075;-81
2022/06/07 00:55:53;;;;;;;41.17;31.30;;;;;;;12.50;100.00;101174.22;5012446;28;20029;-82
2022/06/07 00:58:19;;;;;;;41.37;30.57;;;;;;;12.51;100.00;101170.41;5014673;28;20053;-80
2022/06/07 01:00:46;;;;;;;43.23;30.97;;;;;;;12.54;100.00;101180.88;5015697;28;20726;-81
2022/06/07 01:03:12;;;;;;;40.53;29.37;;;;;;;12.55;100.00;101168.97;5018659;28;20471;-81
2022/06/07 01:05:38;;;;;;;38.60;29.13;;;;;;;12.45;100.00;101158.53;5015566;28;20112;-82
2022/06/07 01:10:50;;;;;;;36.33;29.15;;;;;;;12.54;100.00;101166.44;5015175;28;20121;-82
2022/06/07 01:13:19;;;;;;;38.30;27.60;;;;;;;12.47;100.00;101161.03;5016649;28;20041;-83
2022/06/07 01:15:46;;;;;;;36.17;27.23;;;;;;;12.52;100.00;101161.22;5010530;28;20049;-82
2022/06/07 01:18:12;;;;;;;32.70;26.47;;;;;;;12.52;100.00;101172.09;5017582;28;20040;-83
2022/06/07 01:20:39;;;;;;;35.03;26.90;;;;;;;12.52;100.00;101160.41;5011601;28;20044;-83
2022/06/07 01:23:05;;;;;;;33.90;27.23;;;;;;;12.37;100.00;101130.78;5014416;28;20051;-82
2022/06/07 01:25:31;;;;;;;33.23;26.70;;;;;;;12.47;100.00;101144.72;5009264;28;20042;-83
2022/06/07 01:27:56;;;;;;;34.57;26.30;;;;;;;12.50;100.00;101152.47;5017259;28;20128;-83
2022/06/07 01:30:22;;;;;;;34.47;24.83;;;;;;;12.50;100.00;101147.03;5012107;28;20713;-84
2022/06/07 01:32:47;;;;;;;34.10;24.20;;;;;;;12.53;100.00;101151.19;5010527;28;21590;-83
2022/06/07 01:35:13;;;;;;;31.40;24.53;;;;;;;12.54;100.00;101150.97;5016653;28;20116;-82
2022/06/07 01:37:38;;;;;;;32.93;25.47;;;;;;;12.53;100.00;101152.03;5015612;28;20033;-83
2022/06/07 01:42:49;;;;;;;33.43;23.40;;;;;;;12.49;100.00;101139.91;5014773;28;20060;-82
2022/06/07 01:45:15;;;;;;;29.17;22.43;;;;;;;12.55;100.00;101143.66;5014336;28;20037;-82
2022/06/07 01:47:40;;;;;;;29.70;21.93;;;;;;;12.55;100.00;101143.66;5028362;28;20033;-82
2022/06/07 01:50:08;;;;;;;31.10;23.23;;;;;;;12.50;100.00;101128.00;5012931;28;20050;-83
2022/06/07 01:52:35;;;;;;;27.27;21.03;;;;;;;12.54;100.00;101139.25;5010206;28;20037;-82
2022/06/07 01:55:01;;;;;;;29.73;21.77;;;;;;;12.38;100.00;101111.56;5012920;28;20048;-83
2022/06/07 01:57:28;;;;;;;26.80;21.20;;;;;;;12.48;100.00;101128.22;5010869;28;20034;-83
2022/06/07 01:59:54;;;;;;;25.83;20.13;;;;;;;12.48;100.00;101119.22;5026298;28;20160;-81
2022/06/07 02:02:19;;;;;;;26.47;20.23;;;;;;;12.48;99.73;101121.94;5009295;28;20460;-83
2022/06/07 02:04:45;;;;;;;25.20;19.23;;;;;;;12.42;99.11;101112.78;5015595;28;20055;-86
2022/06/07 02:07:12;;;;;;;24.47;19.17;;;;;;;12.44;98.98;101120.72;5011624;28;20050;-83
2022/06/07 02:09:37;;;;;;;25.23;18.93;;;;;;;12.44;99.21;101123.44;5011207;28;20366;-83
2022/06/07 02:12:03;;;;;;;23.73;18.90;;;;;;;12.42;99.19;101128.25;5012792;28;20029;-83
2022/06/07 02:14:29;;;;;;;23.53;17.73;;;;;;;12.39;99.04;101125.97;5023618;28;20054;-83
2022/06/07 02:16:55;;;;;;;21.30;16.47;;;;;;;12.37;99.08;101125.34;5013551;28;20029;-82
2022/06/07 02:19:21;;;;;;;25.90;17.57;;;;;;;12.35;99.21;101122.00;5009241;28;20041;-83
2022/06/07 02:21:46;;;;;;;24.00;17.07;;;;;;;12.36;98.97;101121.78;5027583;28;20020;-83
2022/06/07 02:24:11;;;;;;;23.10;17.40;;;;;;;12.35;99.01;101119.28;5010534;28;20543;-82
2022/06/07 02:26:52;;;;;;;24.23;17.53;;;;;;;12.35;99.06;101119.28;5012573;28;20022;-85
2022/06/07 02:29:26;;;;;;;23.00;16.93;;;;;;;12.33;98.80;101120.38;5012765;28;20099;-83
2022/06/07 02:31:57;;;;;;;20.80;15.45;;;;;;;12.31;98.57;101108.03;5012774;28;20025;-82
2022/06/07 02:34:24;;;;;;;24.60;15.60;;;;;;;12.27;97.58;101107.63;5012438;28;20428;-83
2022/06/07 02:36:54;;;;;;;21.67;15.93;;;;;;;12.26;97.91;101105.97;5014365;28;20041;-83
2022/06/07 02:39:20;;;;;;;21.03;15.90;;;;;;;12.27;97.73;101118.50;5012337;28;20033;-83
2022/06/07 02:41:46;;;;;;;22.03;14.87;;;;;;;12.25;97.42;101111.63;5013055;28;20041;-82
2022/06/07 02:44:12;;;;;;;22.33;14.57;;;;;;;12.25;97.22;101111.63;5018883;28;20385;-83
2022/06/07 02:46:37;;;;;;;22.83;15.27;;;;;;;12.25;97.63;101109.75;5012649;28;20030;-85
2022/06/07 02:49:03;;;;;;;20.47;15.20;;;;;;;12.25;97.81;101101.59;5011417;28;20115;-83
2022/06/07 02:51:28;;;;;;;22.70;14.77;;;;;;;12.21;97.68;101105.81;5009640;28;20454;-82
2022/06/07 02:53:56;;;;;;;21.20;14.83;;;;;;;12.15;97.53;101096.59;5018549;28;20346;-82
2022/06/07 02:56:22;;;;;;;19.27;14.17;;;;;;;12.19;97.39;101097.00;5008483;28;20029;-82
2022/06/07 02:58:47;;;;;;;19.80;12.93;;;;;;;12.19;97.30;101102.44;5014336;28;20037;-82
2022/06/07 03:01:12;;;;;;;20.10;13.67;;;;;;;12.15;96.95;101101.22;5012012;28;20045;-81
2022/06/07 03:03:38;;;;;;;21.47;12.77;;;;;;;12.13;97.26;101098.72;5012071;28;20033;-82
2022/06/07 03:06:04;;;;;;;19.93;13.30;;;;;;;12.14;96.90;101103.13;5024174;28;20129;-85
2022/06/07 03:08:30;;;;;;;21.53;12.53;;;;;;;12.06;96.56;101094.34;5010561;28;20120;-82
2022/06/07 03:10:56;;;;;;;17.47;11.93;;;;;;;12.11;96.92;101105.41;5012887;28;20179;-83
2022/06/07 03:13:21;;;;;;;17.57;12.17;;;;;;;11.96;96.69;101084.78;5016084;28;20137;-82
2022/06/07 03:15:47;;;;;;;17.43;12.40;;;;;;;12.05;96.15;101098.13;5023102;28;20048;-82
2022/06/07 03:18:13;;;;;;;16.27;12.10;;;;;;;12.02;96.01;101112.94;5012269;28;20034;-83
2022/06/07 03:20:41;;;;;;;16.93;11.33;;;;;;;12.01;96.04;101111.31;5010032;28;20045;-83
2022/06/07 03:23:07;;;;;;;15.37;11.30;;;;;;;12.01;96.13;101111.31;5014164;28;20152;-82
2022/06/07 03:25:33;;;;;;;14.87;10.73;;;;;;;11.99;95.79;101110.69;5025896;28;20026;-82
2022/06/07 03:27:59;;;;;;;18.73;11.13;;;;;;;11.99;95.95;101111.53;5009256;28;20021;-82
2022/06/07 03:30:24;;;;;;;19.40;11.17;;;;;;;11.96;95.88;101120.09;5028773;28;20037;-83
2022/06/07 03:32:50;;;;;;;17.60;11.03;;;;;;;11.98;95.98;101115.28;5015491;28;20030;-82
2022/06/07 03:35:15;;;;;;;19.33;11.80;;;;;;;11.95;95.96;101117.59;5021179;28;20018;-82
2022/06/07 03:37:42;;;;;;;16.03;10.87;;;;;;;11.91;95.62;101117.16;5013925;28;20449;-81
2022/06/07 03:40:10;;;;;;;15.27;10.27;;;;;;;11.92;95.71;101132.38;5011733;28;20033;-83
2022/06/07 03:42:36;;;;;;;17.33;10.37;;;;;;;11.90;96.33;101129.06;5011956;28;20025;-82
2022/06/07 03:45:03;;;;;;;17.60;10.43;;;;;;;11.88;95.49;101123.00;5026184;28;20051;-81
2022/06/07 03:47:28;;;;;;;15.33;10.73;;;;;;;11.88;95.53;101133.88;5019015;28;20343;-81
2022/06/07 03:49:54;;;;;;;15.17;10.60;;;;;;;11.88;95.55;101127.63;5013596;28;20220;-80
2022/06/07 03:52:19;;;;;;;15.53;10.10;;;;;;;11.86;95.40;101130.53;5015648;28;20030;-81
2022/06/07 03:54:45;;;;;;;15.73;9.37;;;;;;;11.85;95.67;101133.47;5016872;28;20025;-82
2022/06/07 03:57:12;;;;;;;14.43;9.20;;;;;;;11.85;95.39;101139.72;5013997;28;20061;-81
2022/06/07 03:59:38;;;;;;;14.23;9.57;;;;;;;11.86;95.45;101141.41;5016165;28;20128;-81
2022/06/07 04:02:05;;;;;;;15.73;9.43;;;;;;;11.83;95.61;101141.81;5013205;28;20124;-82
2022/06/07 04:04:31;;;;;;;15.23;9.43;;;;;;;11.86;95.88;101143.25;5014379;28;20055;-80
2022/06/07 04:09:41;;;;;;;13.93;9.20;;;;;;;11.81;95.29;101136.59;5015184;28;20064;-81
2022/06/07 04:12:11;;;;;;;15.87;9.60;;;;;;;11.82;95.49;101137.44;5011255;28;20068;-80
2022/06/07 04:14:41;;;;;;;14.23;9.33;;;;;;;11.84;95.34;101146.19;5031009;28;20029;-81
2022/06/07 04:17:07;;;;;;;15.27;9.90;;;;;;;11.83;95.40;101139.09;5016678;28;20377;-81
2022/06/07 04:19:34;;;;;;;14.57;9.47;;;;;;;11.82;95.07;101140.16;5029392;28;20025;-80
2022/06/07 04:22:00;;;;;;;14.73;9.70;;;;;;;11.82;94.85;101140.16;5020343;28;20092;-80
2022/06/07 04:24:26;;;;;;;18.03;9.60;;;;;;;11.86;94.95;101143.25;5014007;28;20048;-80
2022/06/07 04:26:51;;;;;;;15.53;9.63;;;;;;;11.82;94.66;101134.72;5012918;28;20026;-80
2022/06/07 04:29:16;;;;;;;14.50;9.07;;;;;;;11.87;94.89;101144.94;5012859;28;20092;-81
2022/06/07 04:31:42;;;;;;;15.60;9.47;;;;;;;11.86;94.48;101143.25;5016830;28;20025;-80
2022/06/07 04:34:07;;;;;;;14.63;9.70;;;;;;;11.85;94.65;101144.34;5012269;28;20470;-80
2022/06/07 04:36:33;;;;;;;14.03;9.33;;;;;;;11.83;94.26;101144.53;5019595;28;20040;-80
2022/06/07 04:39:02;;;;;;;14.77;9.73;;;;;;;11.86;94.61;101149.56;5012211;28;20033;-80
2022/06/07 04:41:28;;;;;;;15.23;9.63;;;;;;;11.89;95.41;101151.00;5014755;28;20033;-81
2022/06/07 04:43:54;;;;;;;17.67;10.03;;;;;;;11.89;94.99;101157.25;5015598;28;20053;-82
2022/06/07 04:46:20;;;;;;;14.17;10.00;;;;;;;11.90;94.50;101153.50;5017641;28;20384;-80
2022/06/07 04:48:48;;;;;;;14.77;10.30;;;;;;;11.76;94.79;101130.16;5015063;28;20033;-81
2022/06/07 04:51:25;;;;;;;14.23;9.90;;;;;;;11.92;95.15;101156.00;5016195;28;20370;-81
2022/06/07 04:53:51;;;;;;;15.37;10.03;;;;;;;11.95;94.88;101153.75;5020191;28;20092;-80
2022/06/07 04:56:24;;;;;;;17.90;10.17;;;;;;;11.94;95.05;101160.22;5018940;28;20045;-80
2022/06/07 04:58:50;;;;;;;14.82;9.95;;;;;;;11.95;94.74;101151.03;5011389;28;20037;-80
2022/06/07 05:01:20;;;;;;;18.93;10.17;;;;;;;11.98;94.83;101158.72;5015344;28;20040;-81
2022/06/07 05:03:46;;;;;;;17.00;10.67;;;;;;;11.99;94.93;101156.84;5027117;28;20534;-82
2022/06/07 05:06:26;;;;;;;16.03;10.30;;;;;;;12.04;94.38;101164.38;5014359;28;20357;-80
2022/06/07 05:08:55;;;;;;;16.90;11.07;;;;;;;12.10;95.03;101171.63;5011395;28;20477;-81
2022/06/07 05:11:21;;;;;;;18.13;11.33;;;;;;;12.11;94.80;101157.03;5017499;28;20021;-80
2022/06/07 05:13:46;;;;;;;15.93;10.50;;;;;;;12.10;94.58;101153.47;5025632;28;20048;-79
2022/06/07 05:16:12;;;;;;;14.73;11.20;;;;;;;12.13;94.48;101158.47;5012610;28;20046;-80
2022/06/07 05:18:38;;;;;;;17.57;11.90;;;;;;;12.22;94.64;101159.06;5016622;28;20144;-80
2022/06/07 05:21:08;;;;;;;16.30;11.80;;;;;;;12.23;93.99;101158.00;5011764;28;20064;-80
2022/06/07 05:23:34;;;;;;;20.03;12.17;;;;;;;12.29;94.08;101161.75;5033027;28;20036;-83
2022/06/07 05:26:07;;;;;;;19.80;12.00;;;;;;;12.36;94.45;101162.53;5009969;28;20045;-79
2022/06/07 05:28:33;;;;;;;17.83;12.77;;;;;;;12.38;94.26;101160.47;5036283;28;20357;-79
2022/06/07 05:30:58;;;;;;;18.57;12.63;;;;;;;12.45;94.15;101163.16;5015452;28;20141;-80
2022/06/07 05:33:24;;;;;;;18.03;12.87;;;;;;;12.48;94.08;101160.00;5017945;28;20112;-80
2022/06/07 05:35:49;;;;;;;20.50;13.30;;;;;;;12.52;93.73;101161.22;5023385;28;20045;-82
2022/06/07 05:38:16;;;;;;;18.37;13.17;;;;;;;12.59;93.92;101167.47;5022738;28;20033;-80
2022/06/07 05:40:41;;;;;;;20.37;13.77;;;;;;;12.63;93.68;101173.28;5016387;28;20033;-80
2022/06/07 05:43:07;;;;;;;19.63;13.40;;;;;;;12.69;93.56;101163.44;5010889;28;20038;-80
2022/06/07 05:45:32;;;;;;;19.47;13.47;;;;;;;12.73;93.23;101167.38;5026673;28;20030;-83
2022/06/07 05:47:58;;;;;;;24.07;14.00;;;;;;;12.71;93.43;101167.59;5015524;28;20117;-81
2022/06/07 05:50:25;;;;;;;19.20;13.63;;;;;;;12.77;93.91;101174.91;5014525;28;20046;-82
2022/06/07 05:52:51;;;;;;;22.47;14.57;;;;;;;12.79;93.61;101172.78;5017802;28;20030;-80
2022/06/07 05:55:16;;;;;;;21.47;14.23;;;;;;;12.81;93.88;101167.97;5015637;28;20033;-79
2022/06/07 05:57:44;;;;;;;19.47;14.13;;;;;;;12.86;93.59;101178.19;5015113;28;20021;-80
2022/06/07 06:00:11;;;;;;;24.57;15.57;;;;;;;12.81;93.14;101167.13;5018763;28;21771;-81
2022/06/07 06:02:36;;;;;;;23.07;16.13;;;;;;;12.90;94.14;101173.97;5016821;28;20087;-82
2022/06/07 06:05:01;;;;;;;25.87;15.37;;;;;;;12.86;93.88;101163.75;5009733;28;20041;-80
2022/06/07 06:07:28;;;;;;;26.70;15.47;;;;;;;12.95;93.52;101174.16;5010537;28;20516;-80
2022/06/07 06:12:37;;;;;;;22.38;15.63;;;;;;;12.98;93.38;101176.41;5011957;28;20041;-81
2022/06/07 06:15:03;;;;;;;23.40;15.97;;;;;;;12.93;92.82;101175.41;5011840;28;21426;-80
2022/06/07 06:17:30;;;;;;;23.20;15.70;;;;;;;12.99;93.36;101174.56;5013587;28;20048;-80
2022/06/07 06:19:55;;;;;;;22.63;15.37;;;;;;;12.99;93.38;101180.81;5010770;28;20093;-81
2022/06/07 06:22:21;;;;;;;22.63;14.83;;;;;;;13.00;92.88;101178.91;5015010;28;20433;-79
2022/06/07 06:24:46;;;;;;;22.43;14.93;;;;;;;13.03;92.80;101183.94;5013896;28;20481;-81
2022/06/07 06:27:12;;;;;;;20.90;14.70;;;;;;;13.05;92.80;101181.00;5010013;28;20528;-81
2022/06/07 06:29:37;;;;;;;24.10;15.10;;;;;;;13.02;92.23;101176.00;5008976;28;20045;-80
2022/06/07 06:32:03;;;;;;;23.43;15.50;;;;;;;13.11;92.42;101180.09;5013126;28;20096;-79
2022/06/07 06:34:29;;;;;;;21.13;15.17;;;;;;;13.17;92.90;101185.50;5014157;28;20067;-82
2022/06/07 06:36:56;;;;;;;25.03;17.57;;;;;;;13.22;92.65;101175.81;5028666;28;20041;-80
2022/06/07 06:39:22;;;;;;;25.20;16.90;;;;;;;13.33;92.67;101173.22;5013044;28;20065;-80
2022/06/07 06:41:48;;;;;;;24.17;17.17;;;;;;;13.47;92.47;101175.88;5027646;28;20371;-80
2022/06/07 06:44:13;;;;;;;25.57;17.47;;;;;;;13.63;92.58;101172.56;5010677;28;20034;-80
2022/06/07 06:46:42;;;;;;;23.83;17.57;;;;;;;13.87;92.94;101186.41;5006453;28;20501;-81
2022/06/07 06:49:09;;;;;;;25.87;18.10;;;;;;;14.04;92.00;101183.06;5005460;28;20139;-82
2022/06/07 06:51:34;;;;;;;26.63;18.77;;;;;;;14.16;91.68;101186.72;5005373;28;20077;-81
2022/06/07 06:54:01;;;;;;;28.23;19.20;;;;;;;14.27;90.74;101180.47;5019258;28;20053;-82
2022/06/07 06:56:29;;;;;;;28.10;19.20;;;;;;;14.39;90.00;101174.25;5006793;28;20125;-82
2022/06/07 06:58:55;;;;;;;27.00;19.90;;;;;;;14.47;89.12;101184.84;5005090;28;20034;-84
2022/06/07 07:01:26;;;;;;;31.67;21.33;;;;;;;14.54;88.55;101185.59;5005928;28;20038;-81
2022/06/07 07:03:52;;;;;;;30.70;21.87;;;;;;;14.53;87.81;101183.94;5004116;28;20022;-81
2022/06/07 07:06:20;;;;;;;27.50;21.83;;;;;;;14.46;87.96;101191.38;5005386;28;20385;-81
2022/06/07 07:08:47;;;;;;;28.53;21.27;;;;;;;14.43;88.21;101184.50;5004980;28;20119;-82
2022/06/07 07:11:25;;;;;;;29.73;20.70;;;;;;;14.50;89.20;101184.41;5020704;28;20614;-80
2022/06/07 07:13:53;;;;;;;28.90;21.90;;;;;;;14.68;89.32;101200.75;5020154;28;20818;-81
2022/06/07 07:16:21;;;;;;;28.77;22.03;;;;;;;14.68;88.55;101192.56;5005702;28;20038;-81
2022/06/07 07:18:48;;;;;;;29.13;21.77;;;;;;;14.70;88.46;101189.63;5004691;28;20331;-80
2022/06/07 07:21:22;;;;;;;29.33;21.10;;;;;;;14.72;88.09;101178.47;5005813;28;20041;-83
2022/06/07 07:23:47;;;;;;;;;;;;;;;14.94;88.44;101195.97;5008680;28;20038;-81
2022/06/07 07:26:17;;;;;;;28.07;21.10;;;;;;;14.85;88.54;101194.66;5015121;28;19936;-80
2022/06/07 07:28:42;;;;;;;29.13;22.20;;;;;;;14.97;87.85;101192.81;5009087;28;20045;-81
2022/06/07 07:31:13;;;;;;;30.03;22.50;;;;;;;15.09;87.61;101194.72;5005828;28;20492;-81
2022/06/07 07:33:39;;;;;;;28.93;22.67;;;;;;;15.25;88.33;101188.59;5007516;28;20037;-82
2022/06/07 07:36:05;;;;;;;27.60;22.20;;;;;;;15.29;87.47;101184.31;5009099;28;20049;-84
2022/06/07 07:38:31;;;;;;;29.73;23.20;;;;;;;15.46;86.79;101192.66;5009874;28;20342;-82
2022/06/07 07:40:57;;;;;;;29.83;22.97;;;;;;;15.54;86.88;101188.72;5008227;28;20741;-82
2022/06/07 07:43:22;;;;;;;31.50;23.53;;;;;;;15.58;84.74;101192.66;5023581;28;20039;-81
2022/06/07 07:45:52;;;;;;;28.80;23.17;;;;;;;15.74;86.25;101195.75;5008850;28;21367;-81
2022/06/07 07:48:19;;;;;;;29.40;24.43;;;;;;;15.88;86.83;101197.19;5008959;28;20107;-81
2022/06/07 07:50:45;;;;;;;28.33;22.80;;;;;;;15.95;85.25;101197.06;5008211;28;20147;-81
2022/06/07 07:53:11;;;;;;;29.07;23.63;;;;;;;15.87;84.37;101195.56;5008298;28;20079;-82
2022/06/07 07:55:42;;;;;;;28.77;24.93;;;;;;;15.87;84.29;101190.09;5007940;28;20259;-82
2022/06/07 07:58:08;;;;;;;29.33;24.57;;;;;;;15.98;84.40;101202.91;5008364;28;20041;-81
2022/06/07 08:00:34;;;;;;;28.07;24.60;;;;;;;15.76;81.53;101193.59;5008106;28;20038;-83
2022/06/07 08:03:00;;;;;;;28.37;24.20;;;;;;;15.80;82.97;101192.09;5008719;28;20068;-82
2022/06/07 08:05:25;;;;;;;27.97;22.53;;;;;;;15.85;82.61;101186.75;5007820;28;20116;-81
2022/06/07 08:07:51;;;;;;;28.70;23.40;;;;;;;16.06;82.77;101195.41;5008841;28;20042;-82
2022/06/07 08:10:17;;;;;;;28.03;23.73;;;;;;;15.88;81.87;101172.59;5007624;28;20481;-82
2022/06/07 08:12:43;;;;;;;28.93;23.70;;;;;;;16.11;82.68;101195.50;5013974;28;20041;-81
2022/06/07 08:15:09;;;;;;;26.90;24.00;;;;;;;16.04;82.12;101187.44;5008367;28;20052;-80
2022/06/07 08:17:35;;;;;;;30.50;24.90;;;;;;;16.14;82.11;101193.13;5008137;28;20474;-82
2022/06/07 08:20:00;;;;;;;29.93;24.27;;;;;;;16.22;80.90;101197.38;5007344;28;20148;-82
2022/06/07 08:22:26;;;;;;;28.33;24.50;;;;;;;16.46;80.38;101194.59;5009153;28;20120;-83
2022/06/07 08:24:51;;;;;;;28.00;24.50;;;;;;;16.56;80.18;101194.78;5008016;28;20038;-83
2022/06/07 08:27:16;;;;;;;27.63;23.93;;;;;;;16.40;78.94;101192.81;5007866;28;20095;-85
2022/06/07 08:29:42;;;;;;;29.10;25.50;;;;;;;16.33;78.82;101191.06;5007941;28;20105;-82
2022/06/07 08:32:08;;;;;;;28.23;24.93;;;;;;;16.31;80.66;101198.66;5007933;28;20110;-83
2022/06/07 08:37:33;;;;;;;28.17;25.27;;;;;;;16.40;80.60;101193.66;5007878;28;20978;-82
2022/06/07 08:39:59;;;;;;;27.83;24.80;;;;;;;16.61;81.15;101194.06;5006495;28;20061;-82
2022/06/07 08:42:37;;;;;;;28.87;25.73;;;;;;;16.79;80.97;101196.59;5022642;28;20045;-81
2022/06/07 08:45:02;;;;;;;28.37;24.37;;;;;;;16.86;78.91;101189.09;5021826;28;20049;-82
2022/06/07 08:47:56;;;;;;;27.03;24.13;;;;;;;17.14;79.49;101183.84;5008220;28;20085;-82
2022/06/07 08:50:26;;;;;;;28.23;23.00;;;;;;;17.34;78.14;101189.66;5006592;28;20055;-84
2022/06/07 08:52:55;;;;;;;26.90;23.87;;;;;;;17.50;77.24;101187.16;5021642;28;20026;-83
2022/06/07 08:55:27;;;;;;;27.80;23.87;;;;;;;17.51;74.04;101180.59;5007747;28;20026;-81
2022/06/07 08:57:59;;;;;;;26.30;22.30;;;;;;;17.72;75.31;101193.53;5009117;28;20120;-83
2022/06/07 09:00:28;;;;;;;25.50;21.97;;;;;;;17.58;71.82;101169.47;5013541;28;21156;-82
2022/06/07 09:03:12;;;;;;;26.85;22.98;;;;;;;17.91;72.66;101197.91;5027952;28;20025;-82
2022/06/07 09:05:37;;;;;;;26.48;23.52;;;;;;;17.74;71.00;101195.22;5013871;28;20029;-83
2022/06/07 09:08:03;;;;;;;27.00;24.30;;;;;;;17.96;72.22;101193.34;5026963;28;20044;-83
2022/06/07 09:13:13;;;;;;;26.60;22.98;;;;;;;18.13;70.48;101193.31;5014354;28;20091;-82
2022/06/07 09:15:40;;;;;;;25.55;22.88;;;;;;;18.09;69.08;101185.84;5013388;28;20033;-82
2022/06/07 09:18:06;;;;;;;22.98;20.50;;;;;;;18.18;69.40;101187.91;5007011;28;20457;-82
2022/06/07 09:20:37;;;;;;;23.98;21.38;;;;;;;18.42;69.65;101184.06;5030159;28;20041;-82
2022/06/07 09:23:28;;;;;;;22.00;19.52;;;;;;;18.84;70.94;101186.16;5007803;28;20033;-83
2022/06/07 09:25:56;;;;;;;20.40;18.20;;;;;;;18.53;67.45;101188.59;5008228;28;20481;-82
2022/06/07 09:28:28;;;;;;;22.80;20.35;;;;;;;18.58;68.95;101187.78;5025793;28;20040;-82
2022/06/07 09:31:05;;;;;;;20.85;18.70;;;;;;;18.69;68.23;101187.66;5013608;28;20035;-82
2022/06/07 09:33:34;;;;;;;22.25;19.85;;;;;;;18.77;68.32;101188.28;5015791;28;20038;-84
2022/06/07 09:36:22;;;;;;;21.55;19.25;;;;;;;18.88;68.01;101182.66;5012620;28;20032;-82
2022/06/07 09:38:53;;;;;;;23.05;20.38;;;;;;;18.69;67.18;101190.41;5011854;28;20460;-80
2022/06/07 09:41:36;;;;;;;22.98;20.58;;;;;;;18.68;68.76;101187.91;5013708;28;20068;-81
2022/06/07 09:44:16;;;;;;;22.15;19.77;;;;;;;18.63;67.22;101175.00;5011142;28;20338;-80
2022/06/07 09:46:44;;;;;;;21.83;19.52;;;;;;;18.75;66.97;101182.22;5022243;28;20034;-79
2022/06/07 09:49:53;;;;;;;20.98;18.70;;;;;;;18.72;67.38;101178.91;5010509;28;20785;-81
2022/06/07 09:52:24;;;;;;;21.50;18.98;;;;;;;18.58;66.01;101187.78;4997153;28;20436;-81
2022/06/07 09:54:54;;;;;;;22.15;19.83;;;;;;;18.40;68.39;101184.34;5003543;28;20076;-81
2022/06/07 09:57:22;;;;;;;23.48;21.08;;;;;;;18.51;68.36;101182.53;5003923;28;20033;-80
2022/06/07 10:00:22;;;;;;;23.23;20.75;;;;;;;18.62;67.50;101180.72;5003085;28;20560;-80
2022/06/07 10:03:11;;;;;;;22.13;19.77;;;;;;;18.56;69.08;101179.81;5020002;28;20370;-80
2022/06/07 10:05:57;;;;;;;21.92;19.63;;;;;;;18.60;67.98;101175.47;5003476;28;20034;-79
2022/06/07 10:08:29;;;;;;;22.38;19.92;;;;;;;18.58;68.49;101172.19;5007997;28;20391;-80
2022/06/07 10:11:34;;;;;;;24.15;20.42;;;;;;;18.82;67.26;101175.47;5003293;28;20041;-79
2022/06/07 10:14:08;;;;;;;;;;;;;;;19.06;67.59;101172.41;5008160;28;20449;-79
2022/06/07 10:16:43;;;;;;;20.70;18.52;;;;;;;18.95;67.68;101171.47;5002788;28;20345;-79
2022/06/07 10:19:37;;;;;;;27.27;19.80;;;;;;;19.12;67.61;101163.13;5003070;28;20037;-80
2022/06/07 10:22:31;;;;;;;20.55;18.35;;;;;;;19.74;67.81;101167.13;5002946;28;20177;-79
2022/06/07 10:25:17;;;;;;;20.95;18.60;;;;;;;20.02;64.88;101162.38;5004588;28;20035;-79
2022/06/07 10:28:02;;;;;;;21.10;18.90;;;;;;;19.92;65.29;101165.06;5003543;28;21398;-80
2022/06/07 10:30:33;;;;;;;20.23;17.92;;;;;;;20.01;63.93;101165.41;5003665;28;20119;-81
2022/06/07 10:33:38;;;;;;;19.90;15.95;;;;;;;19.95;62.37;101156.31;5003534;28;20352;-80
2022/06/07 10:36:25;;;;;;;17.58;14.98;;;;;;;19.94;63.73;101160.13;5004476;28;20029;-81
2022/06/07 10:39:15;;;;;;;19.85;16.77;;;;;;;19.72;63.56;101158.34;5004691;28;20523;-79
2022/06/07 10:41:43;;;;;;;19.58;16.42;;;;;;;19.70;64.29;101159.69;5003558;28;20476;-79
2022/06/07 10:44:35;;;;;;;17.88;16.02;;;;;;;19.94;65.74;101160.13;5007207;28;20034;-78
2022/06/07 10:47:13;;;;;;;18.88;16.15;;;;;;;19.86;63.03;101144.16;5007288;28;20107;-80
2022/06/07 10:49:54;;;;;;;17.70;15.77;;;;;;;19.72;61.90;101166.59;5013560;28;20097;-80
2022/06/07 10:52:48;;;;;;;19.20;15.63;;;;;;;19.77;63.64;101135.53;5009262;28;20112;-81
2022/06/07 10:55:35;;;;;;;18.65;14.63;;;;;;;19.82;63.92;101145.78;5026284;28;20032;-79
2022/06/07 10:58:29;;;;;;;18.70;15.18;;;;;;;20.20;64.26;101146.50;5012367;28;20021;-80
2022/06/07 11:00:55;;;;;;;;;;;;;;;20.59;64.18;101146.06;5011486;28;20066;-79
2022/06/07 11:03:26;;;;;;;20.23;17.02;;;;;;;20.18;64.15;101140.44;5030988;28;19955;-79
2022/06/07 11:11:35;;;;;;;15.43;13.00;;;;;;;19.90;62.42;101135.09;5006387;28;20063;-79
2022/06/07 11:14:24;;;;;;;14.93;13.18;;;;;;;19.86;63.61;101133.16;5005863;28;20481;-79
2022/06/07 11:17:11;;;;;;;13.38;12.00;;;;;;;19.66;63.26;101142.88;5007897;28;20045;-80
2022/06/07 11:19:37;;;;;;;16.02;13.77;;;;;;;19.49;63.77;101136.75;5009686;28;20373;-80
2022/06/07 11:22:10;;;;;;;15.55;12.02;;;;;;;19.38;62.79;101147.66;5010666;28;20037;-78
2022/06/07 11:25:13;;;;;;;16.55;12.68;;;;;;;19.40;62.92;101147.41;5019164;28;20067;-82
2022/06/07 11:27:52;;;;;;;17.20;12.00;;;;;;;19.62;62.62;101144.53;5016542;28;20388;-79
2022/06/07 11:30:28;;;;;;;15.20;11.75;;;;;;;19.61;61.76;101134.63;5011946;28;20034;-80
2022/06/07 11:32:58;;;;;;;14.48;12.52;;;;;;;19.54;58.60;101136.78;5006656;28;20038;-79
2022/06/07 11:35:48;;;;;;;14.20;11.85;;;;;;;19.53;61.38;101135.16;5007937;28;20056;-80
2022/06/07 11:38:13;;;;;;;15.77;11.45;;;;;;;19.34;60.87;101143.78;5006826;28;20091;-80
2022/06/07 11:40:39;;;;;;;15.55;11.60;;;;;;;19.17;59.89;101143.09;5006036;28;20025;-81
2022/06/07 11:43:43;;;;;;;13.05;10.90;;;;;;;19.09;62.57;101140.84;5005813;28;20087;-83